<?xml version="1.0" encoding="UTF-8" standalone="no" ?>
<gpx xmlns="http://www.topografix.com/GPX/1/1" xmlns:xsi="http://www.w3.org/2001/XMLSchema-instance" xsi:schemaLocation="http://www.topografix.com/GPX/1/1 http://www.topografix.com/GPX/1/1/gpx.xsd" version="1.1" creator="VisuGPX - https://www.visugpx.com">
  <metadata>
    <name>83-V-Tourtour</name>
    <desc><![CDATA[83-V-Tourtour : les Moulières (18-3-2016)]]></desc>
  </metadata>
  <trk>
    <name><![CDATA[Tourtour les Moulières 6km D200m F1 3h30 Ve  Voit 20km]]></name>
    <trkseg>
      <trkpt lat="43.60344" lon="6.29196">
        <ele>659.6</ele>
        <time>2016-03-18T13:04:43Z</time>
      </trkpt>
      <trkpt lat="43.60344" lon="6.29196">
        <ele>659.6</ele>
        <time>2016-03-18T13:04:44Z</time>
      </trkpt>
      <trkpt lat="43.60347" lon="6.2921">
        <ele>659.5</ele>
        <time>2016-03-18T13:06:03Z</time>
      </trkpt>
      <trkpt lat="43.60353" lon="6.2922">
        <ele>659.3</ele>
        <time>2016-03-18T13:06:09Z</time>
      </trkpt>
      <trkpt lat="43.60477" lon="6.29281">
        <ele>664</ele>
        <time>2016-03-18T13:09:02Z</time>
      </trkpt>
      <trkpt lat="43.60489" lon="6.29285">
        <ele>664.5</ele>
        <time>2016-03-18T13:09:07Z</time>
      </trkpt>
      <trkpt lat="43.60496" lon="6.29296">
        <ele>665.5</ele>
        <time>2016-03-18T13:09:41Z</time>
      </trkpt>
      <trkpt lat="43.60507" lon="6.29322">
        <ele>665</ele>
        <time>2016-03-18T13:12:52Z</time>
      </trkpt>
      <trkpt lat="43.60514" lon="6.29339">
        <ele>668.5</ele>
        <time>2016-03-18T13:13:46Z</time>
      </trkpt>
      <trkpt lat="43.60528" lon="6.29345">
        <ele>668.9</ele>
        <time>2016-03-18T13:13:49Z</time>
      </trkpt>
      <trkpt lat="43.60694" lon="6.29409">
        <ele>671</ele>
        <time>2016-03-18T13:20:48Z</time>
      </trkpt>
      <trkpt lat="43.60771" lon="6.29642">
        <ele>676</ele>
        <time>2016-03-18T13:24:15Z</time>
      </trkpt>
      <trkpt lat="43.60874" lon="6.29848">
        <ele>686</ele>
        <time>2016-03-18T13:27:39Z</time>
      </trkpt>
      <trkpt lat="43.60879" lon="6.2986">
        <ele>687.7</ele>
        <time>2016-03-18T13:28:05Z</time>
      </trkpt>
      <trkpt lat="43.60942" lon="6.30082">
        <ele>694</ele>
        <time>2016-03-18T13:33:35Z</time>
      </trkpt>
      <trkpt lat="43.60946" lon="6.30093">
        <ele>697.7</ele>
        <time>2016-03-18T13:36:04Z</time>
      </trkpt>
      <trkpt lat="43.60959" lon="6.30139">
        <ele>700</ele>
        <time>2016-03-18T13:37:17Z</time>
      </trkpt>
      <trkpt lat="43.60973" lon="6.30179">
        <ele>702</ele>
        <time>2016-03-18T13:38:22Z</time>
      </trkpt>
      <trkpt lat="43.60993" lon="6.30209">
        <ele>702.2</ele>
        <time>2016-03-18T13:38:25Z</time>
      </trkpt>
      <trkpt lat="43.61039" lon="6.30451">
        <ele>709</ele>
        <time>2016-03-18T13:42:09Z</time>
      </trkpt>
      <trkpt lat="43.60969" lon="6.3068">
        <ele>723</ele>
        <time>2016-03-18T13:48:10Z</time>
      </trkpt>
      <trkpt lat="43.60946" lon="6.30854">
        <ele>735</ele>
        <time>2016-03-18T13:51:43Z</time>
      </trkpt>
      <trkpt lat="43.60939" lon="6.30874">
        <ele>737</ele>
        <time>2016-03-18T13:52:32Z</time>
      </trkpt>
      <trkpt lat="43.60937" lon="6.30888">
        <ele>744.2</ele>
        <time>2016-03-18T13:54:07Z</time>
      </trkpt>
      <trkpt lat="43.60928" lon="6.30905">
        <ele>744.4</ele>
        <time>2016-03-18T13:54:09Z</time>
      </trkpt>
      <trkpt lat="43.60923" lon="6.30915">
        <ele>744.5</ele>
        <time>2016-03-18T13:54:11Z</time>
      </trkpt>
      <trkpt lat="43.60917" lon="6.30929">
        <ele>744.7</ele>
        <time>2016-03-18T13:54:14Z</time>
      </trkpt>
      <trkpt lat="43.60927" lon="6.30927">
        <ele>749</ele>
        <time>2016-03-18T13:58:28Z</time>
      </trkpt>
      <trkpt lat="43.60936" lon="6.30932">
        <ele>748.5</ele>
        <time>2016-03-18T13:58:31Z</time>
      </trkpt>
      <trkpt lat="43.61114" lon="6.30864">
        <ele>732</ele>
        <time>2016-03-18T14:03:21Z</time>
      </trkpt>
      <trkpt lat="43.61258" lon="6.30876">
        <ele>724</ele>
        <time>2016-03-18T14:06:08Z</time>
      </trkpt>
      <trkpt lat="43.61267" lon="6.30867">
        <ele>734.1</ele>
        <time>2016-03-18T14:09:37Z</time>
      </trkpt>
      <trkpt lat="43.61338" lon="6.30889">
        <ele>734</ele>
        <time>2016-03-18T14:09:40Z</time>
      </trkpt>
      <trkpt lat="43.61378" lon="6.30903">
        <ele>734.2</ele>
        <time>2016-03-18T14:09:43Z</time>
      </trkpt>
      <trkpt lat="43.61399" lon="6.30899">
        <ele>737</ele>
        <time>2016-03-18T14:12:47Z</time>
      </trkpt>
      <trkpt lat="43.61554" lon="6.30768">
        <ele>746</ele>
        <time>2016-03-18T14:15:25Z</time>
      </trkpt>
      <trkpt lat="43.61564" lon="6.30758">
        <ele>753</ele>
        <time>2016-03-18T14:16:39Z</time>
      </trkpt>
      <trkpt lat="43.61574" lon="6.30752">
        <ele>753.4</ele>
        <time>2016-03-18T14:16:45Z</time>
      </trkpt>
      <trkpt lat="43.61587" lon="6.30728">
        <ele>755</ele>
        <time>2016-03-18T14:17:39Z</time>
      </trkpt>
      <trkpt lat="43.61503" lon="6.30508">
        <ele>762</ele>
        <time>2016-03-18T14:23:23Z</time>
      </trkpt>
      <trkpt lat="43.61347" lon="6.30381">
        <ele>749</ele>
        <time>2016-03-18T14:29:00Z</time>
      </trkpt>
      <trkpt lat="43.61271" lon="6.30209">
        <ele>715</ele>
        <time>2016-03-18T14:34:06Z</time>
      </trkpt>
      <trkpt lat="43.61146" lon="6.30032">
        <ele>710</ele>
        <time>2016-03-18T14:38:27Z</time>
      </trkpt>
      <trkpt lat="43.61022" lon="6.29848">
        <ele>690</ele>
        <time>2016-03-18T14:51:50Z</time>
      </trkpt>
      <trkpt lat="43.60889" lon="6.29681">
        <ele>677</ele>
        <time>2016-03-18T14:56:49Z</time>
      </trkpt>
      <trkpt lat="43.60808" lon="6.29453">
        <ele>665</ele>
        <time>2016-03-18T15:02:25Z</time>
      </trkpt>
      <trkpt lat="43.60804" lon="6.2928">
        <ele>674</ele>
        <time>2016-03-18T15:09:00Z</time>
      </trkpt>
      <trkpt lat="43.60964" lon="6.29287">
        <ele>685</ele>
        <time>2016-03-18T15:13:24Z</time>
      </trkpt>
      <trkpt lat="43.61143" lon="6.29235">
        <ele>698</ele>
        <time>2016-03-18T15:16:49Z</time>
      </trkpt>
      <trkpt lat="43.61266" lon="6.29184">
        <ele>704</ele>
        <time>2016-03-18T15:19:17Z</time>
      </trkpt>
      <trkpt lat="43.61168" lon="6.28964">
        <ele>700</ele>
        <time>2016-03-18T15:26:37Z</time>
      </trkpt>
      <trkpt lat="43.60996" lon="6.28884">
        <ele>693</ele>
        <time>2016-03-18T15:32:36Z</time>
      </trkpt>
      <trkpt lat="43.60818" lon="6.28883">
        <ele>735</ele>
        <time>2016-03-18T15:39:28Z</time>
      </trkpt>
      <trkpt lat="43.60819" lon="6.2887">
        <ele>725.4</ele>
        <time>2016-03-18T15:49:36Z</time>
      </trkpt>
      <trkpt lat="43.6083" lon="6.28864">
        <ele>720.2</ele>
        <time>2016-03-18T15:50:08Z</time>
      </trkpt>
      <trkpt lat="43.60839" lon="6.28868">
        <ele>705</ele>
        <time>2016-03-18T15:51:02Z</time>
      </trkpt>
      <trkpt lat="43.60849" lon="6.2887">
        <ele>703.6</ele>
        <time>2016-03-18T15:51:05Z</time>
      </trkpt>
      <trkpt lat="43.60861" lon="6.28868">
        <ele>701.7</ele>
        <time>2016-03-18T15:51:09Z</time>
      </trkpt>
      <trkpt lat="43.6087" lon="6.28865">
        <ele>701</ele>
        <time>2016-03-18T15:51:11Z</time>
      </trkpt>
      <trkpt lat="43.60882" lon="6.28865">
        <ele>699.8</ele>
        <time>2016-03-18T15:51:14Z</time>
      </trkpt>
      <trkpt lat="43.60891" lon="6.28871">
        <ele>698.8</ele>
        <time>2016-03-18T15:51:17Z</time>
      </trkpt>
      <trkpt lat="43.60898" lon="6.2888">
        <ele>697.8</ele>
        <time>2016-03-18T15:51:22Z</time>
      </trkpt>
      <trkpt lat="43.60725" lon="6.28797">
        <ele>693</ele>
        <time>2016-03-18T16:00:43Z</time>
      </trkpt>
      <trkpt lat="43.60716" lon="6.28802">
        <ele>692.2</ele>
        <time>2016-03-18T16:00:50Z</time>
      </trkpt>
      <trkpt lat="43.60544" lon="6.2889">
        <ele>675</ele>
        <time>2016-03-18T16:04:21Z</time>
      </trkpt>
      <trkpt lat="43.60404" lon="6.29045">
        <ele>651</ele>
        <time>2016-03-18T16:08:33Z</time>
      </trkpt>
      <trkpt lat="43.60285" lon="6.29121">
        <ele>634</ele>
        <time>2016-03-18T16:12:16Z</time>
      </trkpt>
      <trkpt lat="43.60284" lon="6.29152">
        <ele>625</ele>
        <time>2016-03-18T16:15:32Z</time>
      </trkpt>
      <trkpt lat="43.60292" lon="6.29173">
        <ele>626</ele>
        <time>2016-03-18T16:17:12Z</time>
      </trkpt>
      <trkpt lat="43.60299" lon="6.29183">
        <ele>627</ele>
        <time>2016-03-18T16:19:03Z</time>
      </trkpt>
      <trkpt lat="43.60303" lon="6.29187">
        <ele>628.1</ele>
        <time>2016-03-18T16:21:05Z</time>
      </trkpt>
    </trkseg>
  </trk>
</gpx>